createdAt,value
2023-04-24T00:00:47.052Z,99950.16
2023-04-24T00:05:50.268Z,99954.41
2023-04-24T00:10:54.278Z,99959.47
2023-04-24T00:15:58.750Z,99949.56
2023-04-24T00:21:02.106Z,99961.78
2023-04-24T00:26:05.392Z,99965.19
2023-04-24T00:31:09.944Z,99955.28
2023-04-24T00:36:12.937Z,99965.78
2023-04-24T00:41:15.859Z,99950.91
2023-04-24T00:46:23.200Z,99959.78
2023-04-24T00:51:26.550Z,99956.41
2023-04-24T00:56:29.933Z,99961.72
2023-04-24T01:01:34.922Z,99960.03
2023-04-24T01:06:40.744Z,99964.56
2023-04-24T01:11:44.309Z,99950.63
2023-04-24T01:16:50.841Z,99955.97
2023-04-24T01:21:56.555Z,99966.56
2023-04-24T01:27:01.975Z,99958.66
2023-04-24T01:32:05.579Z,99961.22
2023-04-24T01:37:08.708Z,99963.81
2023-04-24T01:42:14.475Z,99962.00
2023-04-24T01:47:17.708Z,99959.22
2023-04-24T01:52:21.283Z,99961.88
2023-04-24T01:57:25.872Z,99960.06
2023-04-24T02:02:29.834Z,99967.22
2023-04-24T02:07:33.831Z,99956.72
2023-04-24T02:12:38.267Z,99956.72
2023-04-24T02:17:41.654Z,99966.38
2023-04-24T02:22:44.770Z,99963.75
2023-04-24T02:27:49.675Z,99958.53
2023-04-24T02:32:52.701Z,99968.22
2023-04-24T02:37:55.717Z,99959.41
2023-04-24T02:43:00.101Z,99953.19
2023-04-24T02:48:03.161Z,99951.38
2023-04-24T02:53:06.609Z,99937.34
2023-04-24T02:58:11.766Z,99927.72
2023-04-24T03:03:14.917Z,99930.25
2023-04-24T03:08:18.996Z,99938.13
2023-04-24T03:13:23.684Z,99926.72
2023-04-24T03:18:26.933Z,99927.59
2023-04-24T03:23:29.966Z,99923.13
2023-04-24T03:28:34.519Z,99935.38
2023-04-24T03:33:40.639Z,99934.38
2023-04-24T03:38:43.959Z,99934.28
2023-04-24T03:44:01.654Z,99940.88
2023-04-24T03:49:04.818Z,99940.72
2023-04-24T03:54:12.166Z,99942.53
2023-04-24T03:59:18.282Z,99951.19
2023-04-24T04:04:26.904Z,99957.34
2023-04-24T04:09:30.082Z,99966.00
2023-04-24T04:14:34.426Z,99975.56
2023-04-24T04:19:37.452Z,99974.69
2023-04-24T04:24:41.695Z,99977.13
2023-04-24T04:29:47.802Z,99977.72
2023-04-24T04:34:54.383Z,99986.22
2023-04-24T04:39:59.829Z,99993.44
2023-04-24T04:45:10.665Z,100004.09
2023-04-24T04:50:25.189Z,99996.13
2023-04-24T04:55:33.525Z,100000.50
2023-04-24T05:00:45.891Z,100025.88
2023-04-24T05:05:55.051Z,100028.28
2023-04-24T05:10:58.719Z,100042.34
2023-04-24T05:16:06.142Z,100050.28
2023-04-24T05:21:09.516Z,100059.84
2023-04-24T05:26:15.643Z,100047.94
2023-04-24T05:31:20.880Z,100060.53
2023-04-24T05:36:24.009Z,100083.22
2023-04-24T05:41:27.195Z,100097.19
2023-04-24T05:46:31.761Z,100105.63
2023-04-24T05:51:34.999Z,100127.97
2023-04-24T05:56:38.089Z,100135.88
2023-04-24T06:01:43.955Z,100146.34
2023-04-24T06:06:56.736Z,100168.84
2023-04-24T06:12:01.033Z,100183.53
2023-04-24T06:17:15.144Z,100193.53
2023-04-24T06:22:18.872Z,100225.91
2023-04-24T06:27:22.030Z,100242.16
2023-04-24T06:32:28.409Z,100255.78
2023-04-24T06:37:31.672Z,100270.53
2023-04-24T06:42:35.947Z,100294.88
2023-04-24T06:47:41.718Z,100292.38
2023-04-24T06:52:45.357Z,100314.28
2023-04-24T06:57:48.549Z,100335.19
2023-04-24T07:02:53.055Z,100339.50
2023-04-24T07:07:56.230Z,100337.56
2023-04-24T07:12:59.259Z,100364.53
2023-04-24T07:18:05.896Z,100388.16
2023-04-24T07:23:09.522Z,100381.22
2023-04-24T07:28:12.725Z,100403.38
2023-04-24T07:33:17.420Z,100405.19
2023-04-24T07:38:22.168Z,100412.28
2023-04-24T07:43:25.869Z,100435.97
2023-04-24T07:48:30.341Z,100458.94
2023-04-24T07:53:33.751Z,100481.50
2023-04-24T07:58:36.942Z,100458.84
2023-04-24T08:03:41.667Z,100476.00
2023-04-24T08:08:44.877Z,100490.66
2023-04-24T08:13:47.832Z,100493.88
2023-04-24T08:18:53.102Z,100519.69
2023-04-24T08:23:56.141Z,100507.28
2023-04-24T08:28:59.387Z,100532.50
2023-04-24T08:34:03.985Z,100543.09
2023-04-24T08:39:07.798Z,100547.88
2023-04-24T08:44:11.786Z,100553.63
2023-04-24T08:49:18.402Z,100574.78
2023-04-24T08:54:21.763Z,100568.81
2023-04-24T08:59:25.462Z,100571.16
2023-04-24T09:04:31.781Z,100589.53
2023-04-24T09:09:35.452Z,100602.53
2023-04-24T09:14:40.506Z,100608.19
2023-04-24T09:19:44.933Z,100610.41
2023-04-24T09:24:48.424Z,100620.78
2023-04-24T09:29:57.730Z,100625.84
2023-04-24T09:35:13.572Z,100632.75
2023-04-24T09:40:19.431Z,100640.06
2023-04-24T09:45:22.561Z,100654.13
2023-04-24T09:50:27.051Z,100670.94
2023-04-24T09:55:30.295Z,100688.16
2023-04-24T10:00:35.003Z,100689.94
2023-04-24T10:05:40.671Z,100674.94
2023-04-24T10:10:45.557Z,100696.59
2023-04-24T10:15:51.226Z,100676.31
2023-04-24T10:20:57.206Z,100697.66
2023-04-24T10:26:02.515Z,100685.91
2023-04-24T10:31:06.009Z,100687.84
2023-04-24T10:36:12.140Z,100703.38
2023-04-24T10:41:17.453Z,100717.47
2023-04-24T10:46:23.846Z,100722.19
2023-04-24T10:51:49.627Z,100734.84
2023-04-24T10:56:53.234Z,100710.03
2023-04-24T11:01:57.202Z,100737.47
2023-04-24T11:07:01.865Z,100734.88
2023-04-24T11:12:08.748Z,100743.88
2023-04-24T11:17:31.040Z,100746.50
2023-04-24T11:22:37.433Z,100740.19
2023-04-24T11:27:42.905Z,100771.25
2023-04-24T11:32:49.565Z,100777.81
2023-04-24T11:43:02.976Z,100786.31
2023-04-24T11:48:06.238Z,100796.19
2023-04-24T11:53:12.227Z,100796.88
2023-04-24T11:58:15.245Z,100819.97
2023-04-24T12:03:18.532Z,100818.72
2023-04-24T12:08:32.181Z,100819.56
2023-04-24T12:13:35.926Z,100819.75
2023-04-24T12:18:44.150Z,100823.91
2023-04-24T12:23:48.872Z,100825.44
2023-04-24T12:28:52.501Z,100843.19
2023-04-24T12:33:57.125Z,100847.19
2023-04-24T12:39:02.089Z,100836.47
2023-04-24T12:44:05.296Z,100847.91
2023-04-24T12:49:08.397Z,100851.28
2023-04-24T12:54:12.997Z,100859.22
2023-04-24T12:59:16.147Z,100866.78
2023-04-24T13:04:19.793Z,100855.28
2023-04-24T13:09:24.841Z,100899.88
2023-04-24T13:14:27.912Z,100886.88
2023-04-24T13:19:31.639Z,100909.28
2023-04-24T13:24:38.005Z,100891.31
2023-04-24T13:29:43.096Z,100883.63
2023-04-24T13:34:47.020Z,100895.50
2023-04-24T13:39:52.477Z,100899.25
2023-04-24T13:44:56.067Z,100894.63
2023-04-24T13:49:59.270Z,100880.56
2023-04-24T13:55:03.725Z,100881.25
2023-04-24T14:00:11.641Z,100900.03
2023-04-24T14:05:16.588Z,100928.00
2023-04-24T14:10:21.417Z,100921.63
2023-04-24T14:15:24.537Z,100930.50
2023-04-24T14:20:27.520Z,100922.13
2023-04-24T14:25:32.291Z,100918.94
2023-04-24T14:30:35.427Z,100910.50
2023-04-24T14:35:38.579Z,100916.16
2023-04-24T14:45:49.570Z,100910.97
2023-04-24T14:50:52.603Z,100927.44
2023-04-24T14:55:57.074Z,100922.28
2023-04-24T15:01:00.547Z,100920.03
2023-04-24T15:06:04.053Z,100930.50
2023-04-24T15:11:09.037Z,100934.34
2023-04-24T15:16:12.240Z,100930.09
2023-04-24T15:21:15.922Z,100936.00
2023-04-24T15:26:21.549Z,100941.09
2023-04-24T15:31:24.790Z,100948.16
2023-04-24T15:36:27.980Z,100949.53
2023-04-24T15:41:32.899Z,100941.06
2023-04-24T15:46:36.763Z,100946.94
2023-04-24T15:51:39.985Z,100947.25
2023-04-24T15:56:45.613Z,100948.47
2023-04-24T16:01:48.797Z,100953.75
2023-04-24T16:06:52.949Z,100951.06
2023-04-24T16:11:57.948Z,100956.59
2023-04-24T16:17:04.892Z,100948.53
2023-04-24T16:22:07.894Z,100963.53
2023-04-24T16:27:12.616Z,100951.53
2023-04-24T16:32:15.761Z,100971.59
2023-04-24T16:37:19.406Z,100977.59
2023-04-24T16:42:23.936Z,100977.22
2023-04-24T16:47:27.004Z,100964.84
2023-04-24T16:52:30.129Z,100977.44
2023-04-24T16:57:36.500Z,100987.06
2023-04-24T17:02:40.104Z,100989.75
2023-04-24T17:07:43.770Z,100991.06
2023-04-24T17:12:48.523Z,101000.03
2023-04-24T17:17:51.603Z,100987.53
2023-04-24T17:22:54.722Z,101000.22
2023-04-24T17:27:59.113Z,101003.44
2023-04-24T17:33:02.271Z,100998.81
2023-04-24T17:38:05.395Z,100999.94
2023-04-24T17:43:09.985Z,100999.13
2023-04-24T17:48:13.738Z,100999.03
2023-04-24T17:53:18.907Z,101006.63
2023-04-24T17:58:23.493Z,101004.06
2023-04-24T18:03:26.711Z,101004.41
2023-04-24T18:08:29.819Z,101009.84
2023-04-24T18:13:34.510Z,101020.16
2023-04-24T18:18:37.647Z,101013.41
2023-04-24T18:23:41.315Z,101019.41
2023-04-24T18:28:46.028Z,101021.03
2023-04-24T18:33:49.876Z,101039.19
2023-04-24T18:38:53.063Z,101035.31
2023-04-24T18:43:59.321Z,101041.22
2023-04-24T18:49:02.635Z,101042.69
2023-04-24T18:54:06.059Z,101051.44
2023-04-24T18:59:10.451Z,101055.72
2023-04-24T19:04:13.890Z,101058.84
2023-04-24T19:09:17.061Z,101062.81
2023-04-24T19:14:22.827Z,101058.34
2023-04-24T19:19:26.204Z,101042.25
2023-04-24T19:24:29.841Z,101081.81
2023-04-24T19:29:34.336Z,101091.16
2023-04-24T19:34:39.702Z,101101.59
2023-04-24T19:39:43.785Z,101106.66
2023-04-24T19:44:48.393Z,101106.09
2023-04-24T19:49:51.544Z,101105.75
2023-04-24T19:54:54.617Z,101114.13
2023-04-24T19:59:58.996Z,101111.22
2023-04-24T20:05:02.561Z,101112.63
2023-04-24T20:10:06.949Z,101108.16
2023-04-24T20:15:12.441Z,101109.69
2023-04-24T20:20:15.627Z,101102.19
2023-04-24T20:25:18.838Z,101109.91
2023-04-24T20:30:23.227Z,101103.59
2023-04-24T20:35:26.405Z,101111.44
2023-04-24T20:40:31.788Z,101108.19
2023-04-24T20:45:37.158Z,101109.34
2023-04-24T20:50:42.001Z,101112.63
2023-04-24T20:55:45.163Z,101121.66
2023-04-24T21:00:49.891Z,101116.41
2023-04-24T21:05:53.122Z,101118.47
2023-04-24T21:10:56.898Z,101113.69
2023-04-24T21:16:01.485Z,101100.69
2023-04-24T21:21:04.834Z,101112.19
2023-04-24T21:26:08.277Z,101104.09
2023-04-24T21:31:12.682Z,101096.75
2023-04-24T21:36:15.764Z,101099.91
2023-04-24T21:41:18.876Z,101103.06
2023-04-24T21:46:23.417Z,101098.41
2023-04-24T21:51:27.081Z,101102.25
2023-04-24T21:56:30.217Z,101099.50
2023-04-24T22:01:34.709Z,101099.13
2023-04-24T22:06:38.272Z,101090.84
2023-04-24T22:11:41.816Z,101084.34
2023-04-24T22:16:47.797Z,101081.38
2023-04-24T22:21:51.408Z,101089.66
2023-04-24T22:26:54.464Z,101099.81
2023-04-24T22:31:59.025Z,101100.69
2023-04-24T22:37:02.073Z,101112.41
2023-04-24T22:42:05.359Z,101113.53
2023-04-24T22:47:09.850Z,101122.28
2023-04-24T22:52:14.604Z,101126.50
2023-04-24T22:57:17.747Z,101130.72
2023-04-24T23:02:23.104Z,101123.44
2023-04-24T23:07:26.449Z,101120.91
2023-04-24T23:12:29.802Z,101111.34
2023-04-24T23:17:34.261Z,101131.59
2023-04-24T23:22:37.350Z,101135.63
2023-04-24T23:27:40.544Z,101124.81
2023-04-24T23:32:45.656Z,101137.72
2023-04-24T23:37:48.740Z,101126.94
2023-04-24T23:43:03.278Z,101134.75
2023-04-24T23:48:13.948Z,101146.59
2023-04-24T23:53:17.397Z,101146.31
2023-04-24T23:58:20.578Z,101148.34
